sensor_id;sensor_type;location;lat;lon;timestamp;P1;durP1;ratioP1;P2;durP2;ratioP2
76423;SDS011;65257;52.104;4.268;2023-06-22T00:02:20;34.15;;;18.13;;
76423;SDS011;65257;52.104;4.268;2023-06-22T00:04:48;31.65;;;17.35;;
76423;SDS011;65257;52.104;4.268;2023-06-22T00:07:14;29.17;;;16.73;;
76423;SDS011;65257;52.104;4.268;2023-06-22T00:09:39;30.42;;;15.57;;
76423;SDS011;65257;52.104;4.268;2023-06-22T00:12:05;30.45;;;16.33;;
76423;SDS011;65257;52.104;4.268;2023-06-22T00:14:31;34.50;;;16.50;;
76423;SDS011;65257;52.104;4.268;2023-06-22T00:16:59;27.90;;;16.27;;
76423;SDS011;65257;52.104;4.268;2023-06-22T00:19:24;30.92;;;17.00;;
76423;SDS011;65257;52.104;4.268;2023-06-22T00:21:53;29.95;;;16.02;;
76423;SDS011;65257;52.104;4.268;2023-06-22T00:24:19;29.67;;;17.60;;
76423;SDS011;65257;52.104;4.268;2023-06-22T00:26:45;31.80;;;16.92;;
76423;SDS011;65257;52.104;4.268;2023-06-22T00:29:16;30.17;;;15.95;;
76423;SDS011;65257;52.104;4.268;2023-06-22T00:31:43;33.22;;;16.98;;
76423;SDS011;65257;52.104;4.268;2023-06-22T00:34:09;33.85;;;18.23;;
76423;SDS011;65257;52.104;4.268;2023-06-22T00:36:34;33.58;;;16.92;;
76423;SDS011;65257;52.104;4.268;2023-06-22T00:39:00;29.63;;;16.38;;
76423;SDS011;65257;52.104;4.268;2023-06-22T00:41:26;29.48;;;17.35;;
76423;SDS011;65257;52.104;4.268;2023-06-22T00:43:56;31.58;;;16.27;;
76423;SDS011;65257;52.104;4.268;2023-06-22T00:46:22;28.48;;;15.18;;
76423;SDS011;65257;52.104;4.268;2023-06-22T00:48:48;34.83;;;16.35;;
76423;SDS011;65257;52.104;4.268;2023-06-22T00:51:18;33.60;;;16.33;;
76423;SDS011;65257;52.104;4.268;2023-06-22T00:53:49;34.22;;;17.58;;
76423;SDS011;65257;52.104;4.268;2023-06-22T00:56:18;32.78;;;17.35;;
76423;SDS011;65257;52.104;4.268;2023-06-22T00:58:45;30.13;;;16.38;;
76423;SDS011;65257;52.104;4.268;2023-06-22T01:01:12;31.88;;;17.40;;
76423;SDS011;65257;52.104;4.268;2023-06-22T01:03:39;33.55;;;16.75;;
76423;SDS011;65257;52.104;4.268;2023-06-22T01:06:15;35.35;;;19.27;;
76423;SDS011;65257;52.104;4.268;2023-06-22T01:09:20;36.75;;;17.58;;
76423;SDS011;65257;52.104;4.268;2023-06-22T01:17:05;34.90;;;18.42;;
76423;SDS011;65257;52.104;4.268;2023-06-22T01:19:50;31.60;;;17.30;;
76423;SDS011;65257;52.104;4.268;2023-06-22T01:22:30;37.70;;;19.17;;
76423;SDS011;65257;52.104;4.268;2023-06-22T01:25:09;37.35;;;17.75;;
76423;SDS011;65257;52.104;4.268;2023-06-22T01:30:45;35.55;;;17.08;;
76423;SDS011;65257;52.104;4.268;2023-06-22T01:33:11;38.00;;;18.85;;
76423;SDS011;65257;52.104;4.268;2023-06-22T01:35:41;36.58;;;18.52;;
76423;SDS011;65257;52.104;4.268;2023-06-22T01:38:07;39.00;;;18.30;;
76423;SDS011;65257;52.104;4.268;2023-06-22T01:40:33;40.33;;;18.67;;
76423;SDS011;65257;52.104;4.268;2023-06-22T01:43:00;38.92;;;18.00;;
76423;SDS011;65257;52.104;4.268;2023-06-22T01:45:30;36.38;;;18.00;;
76423;SDS011;65257;52.104;4.268;2023-06-22T01:47:55;39.70;;;18.52;;
76423;SDS011;65257;52.104;4.268;2023-06-22T01:50:24;39.65;;;19.52;;
76423;SDS011;65257;52.104;4.268;2023-06-22T01:52:50;38.40;;;19.25;;
76423;SDS011;65257;52.104;4.268;2023-06-22T01:55:15;38.65;;;19.42;;
76423;SDS011;65257;52.104;4.268;2023-06-22T01:57:44;41.75;;;19.45;;
76423;SDS011;65257;52.104;4.268;2023-06-22T02:00:11;39.15;;;19.90;;
76423;SDS011;65257;52.104;4.268;2023-06-22T02:02:48;43.17;;;19.48;;
76423;SDS011;65257;52.104;4.268;2023-06-22T02:05:19;38.30;;;18.70;;
76423;SDS011;65257;52.104;4.268;2023-06-22T02:07:53;41.30;;;18.95;;
76423;SDS011;65257;52.104;4.268;2023-06-22T02:10:46;37.90;;;19.48;;
76423;SDS011;65257;52.104;4.268;2023-06-22T02:13:13;35.58;;;18.38;;
76423;SDS011;65257;52.104;4.268;2023-06-22T02:15:40;37.42;;;18.20;;
76423;SDS011;65257;52.104;4.268;2023-06-22T02:18:07;32.70;;;16.73;;
76423;SDS011;65257;52.104;4.268;2023-06-22T02:20:39;30.90;;;16.35;;
76423;SDS011;65257;52.104;4.268;2023-06-22T02:23:05;28.33;;;15.57;;
76423;SDS011;65257;52.104;4.268;2023-06-22T02:25:32;30.67;;;17.02;;
76423;SDS011;65257;52.104;4.268;2023-06-22T02:27:58;28.88;;;15.77;;
76423;SDS011;65257;52.104;4.268;2023-06-22T02:30:24;30.88;;;15.38;;
76423;SDS011;65257;52.104;4.268;2023-06-22T02:32:49;31.67;;;16.13;;
76423;SDS011;65257;52.104;4.268;2023-06-22T02:35:27;28.98;;;14.43;;
76423;SDS011;65257;52.104;4.268;2023-06-22T02:37:59;28.13;;;13.55;;
76423;SDS011;65257;52.104;4.268;2023-06-22T02:40:29;26.40;;;14.45;;
76423;SDS011;65257;52.104;4.268;2023-06-22T02:43:01;27.08;;;14.05;;
76423;SDS011;65257;52.104;4.268;2023-06-22T02:45:27;24.95;;;13.48;;
76423;SDS011;65257;52.104;4.268;2023-06-22T02:47:53;25.33;;;13.68;;
76423;SDS011;65257;52.104;4.268;2023-06-22T02:50:22;28.20;;;14.63;;
76423;SDS011;65257;52.104;4.268;2023-06-22T02:52:47;29.20;;;16.35;;
76423;SDS011;65257;52.104;4.268;2023-06-22T02:55:34;30.02;;;15.07;;
76423;SDS011;65257;52.104;4.268;2023-06-22T02:57:59;27.40;;;15.68;;
76423;SDS011;65257;52.104;4.268;2023-06-22T03:00:32;29.27;;;15.35;;
76423;SDS011;65257;52.104;4.268;2023-06-22T03:03:00;29.25;;;15.43;;
76423;SDS011;65257;52.104;4.268;2023-06-22T03:05:26;30.15;;;14.55;;
76423;SDS011;65257;52.104;4.268;2023-06-22T03:07:51;32.83;;;15.63;;
76423;SDS011;65257;52.104;4.268;2023-06-22T03:10:16;30.15;;;15.35;;
76423;SDS011;65257;52.104;4.268;2023-06-22T03:12:42;34.60;;;17.95;;
76423;SDS011;65257;52.104;4.268;2023-06-22T03:15:09;39.38;;;19.73;;
76423;SDS011;65257;52.104;4.268;2023-06-22T03:17:37;38.78;;;19.33;;
76423;SDS011;65257;52.104;4.268;2023-06-22T03:20:11;33.33;;;17.60;;
76423;SDS011;65257;52.104;4.268;2023-06-22T03:22:37;42.50;;;21.17;;
76423;SDS011;65257;52.104;4.268;2023-06-22T03:25:09;44.47;;;20.83;;
76423;SDS011;65257;52.104;4.268;2023-06-22T03:27:42;42.97;;;21.02;;
76423;SDS011;65257;52.104;4.268;2023-06-22T03:30:09;45.80;;;22.25;;
76423;SDS011;65257;52.104;4.268;2023-06-22T03:32:39;48.80;;;20.38;;
76423;SDS011;65257;52.104;4.268;2023-06-22T03:35:05;39.58;;;19.48;;
76423;SDS011;65257;52.104;4.268;2023-06-22T03:37:33;39.42;;;20.00;;
76423;SDS011;65257;52.104;4.268;2023-06-22T03:39:59;49.35;;;22.00;;
76423;SDS011;65257;52.104;4.268;2023-06-22T03:42:24;46.10;;;22.10;;
76423;SDS011;65257;52.104;4.268;2023-06-22T03:44:49;50.70;;;23.98;;
76423;SDS011;65257;52.104;4.268;2023-06-22T03:47:15;49.55;;;24.85;;
76423;SDS011;65257;52.104;4.268;2023-06-22T03:49:40;51.65;;;24.27;;
76423;SDS011;65257;52.104;4.268;2023-06-22T03:52:05;54.78;;;24.80;;
76423;SDS011;65257;52.104;4.268;2023-06-22T03:54:31;56.03;;;26.90;;
76423;SDS011;65257;52.104;4.268;2023-06-22T03:57:01;52.92;;;24.83;;
76423;SDS011;65257;52.104;4.268;2023-06-22T03:59:29;59.38;;;24.27;;
76423;SDS011;65257;52.104;4.268;2023-06-22T04:01:57;45.88;;;23.92;;
76423;SDS011;65257;52.104;4.268;2023-06-22T04:04:26;46.95;;;22.25;;
76423;SDS011;65257;52.104;4.268;2023-06-22T04:06:51;47.17;;;22.35;;
76423;SDS011;65257;52.104;4.268;2023-06-22T04:09:16;43.67;;;21.98;;
76423;SDS011;65257;52.104;4.268;2023-06-22T04:11:45;41.67;;;20.10;;
76423;SDS011;65257;52.104;4.268;2023-06-22T04:14:11;40.17;;;21.35;;
76423;SDS011;65257;52.104;4.268;2023-06-22T04:16:36;40.75;;;19.90;;
76423;SDS011;65257;52.104;4.268;2023-06-22T04:19:01;40.78;;;20.13;;
76423;SDS011;65257;52.104;4.268;2023-06-22T04:21:27;39.03;;;19.35;;
76423;SDS011;65257;52.104;4.268;2023-06-22T04:23:52;36.08;;;19.02;;
76423;SDS011;65257;52.104;4.268;2023-06-22T04:26:17;37.45;;;19.00;;
76423;SDS011;65257;52.104;4.268;2023-06-22T04:28:46;33.65;;;17.92;;
76423;SDS011;65257;52.104;4.268;2023-06-22T04:31:20;35.53;;;18.25;;
76423;SDS011;65257;52.104;4.268;2023-06-22T04:33:59;34.88;;;18.52;;
76423;SDS011;65257;52.104;4.268;2023-06-22T04:36:32;32.42;;;18.88;;
76423;SDS011;65257;52.104;4.268;2023-06-22T04:39:07;32.88;;;18.70;;
76423;SDS011;65257;52.104;4.268;2023-06-22T04:41:43;34.42;;;19.30;;
76423;SDS011;65257;52.104;4.268;2023-06-22T04:44:11;34.33;;;19.65;;
76423;SDS011;65257;52.104;4.268;2023-06-22T04:46:48;34.90;;;19.95;;
76423;SDS011;65257;52.104;4.268;2023-06-22T04:49:21;34.13;;;18.40;;
76423;SDS011;65257;52.104;4.268;2023-06-22T04:51:47;31.92;;;18.35;;
76423;SDS011;65257;52.104;4.268;2023-06-22T04:54:16;31.35;;;18.25;;
76423;SDS011;65257;52.104;4.268;2023-06-22T04:56:41;34.80;;;19.67;;
76423;SDS011;65257;52.104;4.268;2023-06-22T04:59:07;36.17;;;18.52;;
76423;SDS011;65257;52.104;4.268;2023-06-22T05:01:33;37.75;;;18.52;;
76423;SDS011;65257;52.104;4.268;2023-06-22T05:04:00;34.55;;;19.17;;
76423;SDS011;65257;52.104;4.268;2023-06-22T05:06:32;38.40;;;20.58;;
76423;SDS011;65257;52.104;4.268;2023-06-22T05:09:01;34.85;;;17.58;;
76423;SDS011;65257;52.104;4.268;2023-06-22T05:11:28;36.92;;;18.73;;
76423;SDS011;65257;52.104;4.268;2023-06-22T05:13:59;36.00;;;19.17;;
76423;SDS011;65257;52.104;4.268;2023-06-22T05:16:24;32.88;;;17.80;;
76423;SDS011;65257;52.104;4.268;2023-06-22T05:18:53;34.15;;;19.15;;
76423;SDS011;65257;52.104;4.268;2023-06-22T05:21:26;36.85;;;18.77;;
76423;SDS011;65257;52.104;4.268;2023-06-22T05:23:52;38.50;;;20.08;;
76423;SDS011;65257;52.104;4.268;2023-06-22T05:26:19;35.08;;;18.95;;
76423;SDS011;65257;52.104;4.268;2023-06-22T05:28:46;34.55;;;18.80;;
76423;SDS011;65257;52.104;4.268;2023-06-22T05:31:13;32.72;;;17.13;;
76423;SDS011;65257;52.104;4.268;2023-06-22T05:33:39;35.95;;;17.80;;
76423;SDS011;65257;52.104;4.268;2023-06-22T05:36:12;32.08;;;18.58;;
76423;SDS011;65257;52.104;4.268;2023-06-22T05:38:38;34.88;;;17.30;;
76423;SDS011;65257;52.104;4.268;2023-06-22T05:41:04;29.33;;;16.23;;
76423;SDS011;65257;52.104;4.268;2023-06-22T05:43:30;28.08;;;16.13;;
76423;SDS011;65257;52.104;4.268;2023-06-22T05:46:02;29.98;;;16.73;;
76423;SDS011;65257;52.104;4.268;2023-06-22T05:48:31;30.48;;;18.00;;
76423;SDS011;65257;52.104;4.268;2023-06-22T05:50:57;33.63;;;17.80;;
76423;SDS011;65257;52.104;4.268;2023-06-22T05:53:22;30.25;;;17.10;;
76423;SDS011;65257;52.104;4.268;2023-06-22T05:55:48;30.13;;;16.10;;
76423;SDS011;65257;52.104;4.268;2023-06-22T05:58:14;30.75;;;16.73;;
76423;SDS011;65257;52.104;4.268;2023-06-22T06:00:40;32.05;;;18.00;;
76423;SDS011;65257;52.104;4.268;2023-06-22T06:03:06;28.40;;;15.80;;
76423;SDS011;65257;52.104;4.268;2023-06-22T06:05:41;30.10;;;18.48;;
76423;SDS011;65257;52.104;4.268;2023-06-22T06:08:08;29.85;;;17.38;;
76423;SDS011;65257;52.104;4.268;2023-06-22T06:10:41;28.95;;;16.70;;
76423;SDS011;65257;52.104;4.268;2023-06-22T06:13:07;28.42;;;16.17;;
76423;SDS011;65257;52.104;4.268;2023-06-22T06:15:34;30.48;;;17.10;;
76423;SDS011;65257;52.104;4.268;2023-06-22T06:18:00;27.60;;;16.23;;
76423;SDS011;65257;52.104;4.268;2023-06-22T06:20:30;26.40;;;15.55;;
76423;SDS011;65257;52.104;4.268;2023-06-22T06:22:56;28.55;;;14.52;;
76423;SDS011;65257;52.104;4.268;2023-06-22T06:25:24;25.98;;;15.02;;
76423;SDS011;65257;52.104;4.268;2023-06-22T06:27:57;27.48;;;15.63;;
76423;SDS011;65257;52.104;4.268;2023-06-22T06:30:22;28.10;;;17.38;;
76423;SDS011;65257;52.104;4.268;2023-06-22T06:32:48;22.48;;;15.13;;
76423;SDS011;65257;52.104;4.268;2023-06-22T06:35:14;24.80;;;14.55;;
76423;SDS011;65257;52.104;4.268;2023-06-22T06:37:47;23.25;;;14.85;;
76423;SDS011;65257;52.104;4.268;2023-06-22T06:40:14;25.55;;;13.95;;
76423;SDS011;65257;52.104;4.268;2023-06-22T06:42:41;22.65;;;14.20;;
76423;SDS011;65257;52.104;4.268;2023-06-22T06:45:14;23.33;;;14.18;;
76423;SDS011;65257;52.104;4.268;2023-06-22T06:47:47;21.27;;;11.85;;
76423;SDS011;65257;52.104;4.268;2023-06-22T06:50:14;22.60;;;12.30;;
76423;SDS011;65257;52.104;4.268;2023-06-22T06:52:43;17.70;;;11.27;;
76423;SDS011;65257;52.104;4.268;2023-06-22T06:55:10;24.70;;;15.15;;
76423;SDS011;65257;52.104;4.268;2023-06-22T06:57:40;24.65;;;16.38;;
76423;SDS011;65257;52.104;4.268;2023-06-22T07:00:07;19.38;;;11.80;;
76423;SDS011;65257;52.104;4.268;2023-06-22T07:02:46;17.50;;;11.20;;
76423;SDS011;65257;52.104;4.268;2023-06-22T07:05:13;27.67;;;17.73;;
76423;SDS011;65257;52.104;4.268;2023-06-22T07:07:38;35.45;;;18.02;;
76423;SDS011;65257;52.104;4.268;2023-06-22T07:10:05;30.80;;;18.80;;
76423;SDS011;65257;52.104;4.268;2023-06-22T07:12:35;31.00;;;18.25;;
76423;SDS011;65257;52.104;4.268;2023-06-22T07:15:03;29.88;;;18.70;;
76423;SDS011;65257;52.104;4.268;2023-06-22T07:17:35;31.27;;;19.20;;
76423;SDS011;65257;52.104;4.268;2023-06-22T07:20:04;30.67;;;19.55;;
76423;SDS011;65257;52.104;4.268;2023-06-22T07:22:43;29.98;;;18.83;;
76423;SDS011;65257;52.104;4.268;2023-06-22T07:25:10;30.92;;;19.60;;
76423;SDS011;65257;52.104;4.268;2023-06-22T07:27:59;30.75;;;19.08;;
76423;SDS011;65257;52.104;4.268;2023-06-22T07:30:27;29.27;;;18.33;;
76423;SDS011;65257;52.104;4.268;2023-06-22T07:32:53;29.10;;;18.15;;
76423;SDS011;65257;52.104;4.268;2023-06-22T07:35:18;28.08;;;17.85;;
76423;SDS011;65257;52.104;4.268;2023-06-22T07:37:44;28.77;;;18.20;;
76423;SDS011;65257;52.104;4.268;2023-06-22T07:40:09;29.00;;;17.42;;
76423;SDS011;65257;52.104;4.268;2023-06-22T07:42:36;33.22;;;18.73;;
76423;SDS011;65257;52.104;4.268;2023-06-22T07:45:05;29.90;;;18.83;;
76423;SDS011;65257;52.104;4.268;2023-06-22T07:47:36;33.95;;;18.40;;
76423;SDS011;65257;52.104;4.268;2023-06-22T07:50:01;31.77;;;19.33;;
76423;SDS011;65257;52.104;4.268;2023-06-22T07:52:28;36.03;;;20.67;;
76423;SDS011;65257;52.104;4.268;2023-06-22T07:54:54;32.17;;;19.00;;
76423;SDS011;65257;52.104;4.268;2023-06-22T07:57:20;33.70;;;20.73;;
76423;SDS011;65257;52.104;4.268;2023-06-22T07:59:45;34.30;;;19.00;;
76423;SDS011;65257;52.104;4.268;2023-06-22T08:02:11;32.17;;;18.45;;
76423;SDS011;65257;52.104;4.268;2023-06-22T08:04:40;31.92;;;20.23;;
76423;SDS011;65257;52.104;4.268;2023-06-22T08:07:06;30.95;;;19.73;;
76423;SDS011;65257;52.104;4.268;2023-06-22T08:09:35;32.65;;;20.10;;
76423;SDS011;65257;52.104;4.268;2023-06-22T08:12:23;32.28;;;18.52;;
76423;SDS011;65257;52.104;4.268;2023-06-22T08:14:52;31.88;;;18.77;;
76423;SDS011;65257;52.104;4.268;2023-06-22T08:17:17;29.77;;;19.23;;
76423;SDS011;65257;52.104;4.268;2023-06-22T08:19:45;36.72;;;19.83;;
76423;SDS011;65257;52.104;4.268;2023-06-22T08:22:11;32.38;;;20.50;;
76423;SDS011;65257;52.104;4.268;2023-06-22T08:24:37;28.75;;;17.90;;
76423;SDS011;65257;52.104;4.268;2023-06-22T08:27:02;31.88;;;20.52;;
76423;SDS011;65257;52.104;4.268;2023-06-22T08:29:29;31.92;;;19.30;;
76423;SDS011;65257;52.104;4.268;2023-06-22T08:32:11;32.90;;;19.50;;
76423;SDS011;65257;52.104;4.268;2023-06-22T08:34:37;32.00;;;19.45;;
76423;SDS011;65257;52.104;4.268;2023-06-22T08:37:07;31.55;;;20.40;;
76423;SDS011;65257;52.104;4.268;2023-06-22T08:39:33;31.90;;;18.40;;
76423;SDS011;65257;52.104;4.268;2023-06-22T08:41:58;32.33;;;19.50;;
76423;SDS011;65257;52.104;4.268;2023-06-22T08:44:25;28.38;;;18.38;;
76423;SDS011;65257;52.104;4.268;2023-06-22T08:46:50;30.92;;;20.10;;
76423;SDS011;65257;52.104;4.268;2023-06-22T08:49:15;29.77;;;19.48;;
76423;SDS011;65257;52.104;4.268;2023-06-22T08:51:41;28.63;;;19.67;;
76423;SDS011;65257;52.104;4.268;2023-06-22T08:54:06;30.02;;;19.05;;
76423;SDS011;65257;52.104;4.268;2023-06-22T08:56:32;31.90;;;18.42;;
76423;SDS011;65257;52.104;4.268;2023-06-22T08:58:57;28.48;;;18.70;;
76423;SDS011;65257;52.104;4.268;2023-06-22T09:01:29;27.40;;;19.00;;
76423;SDS011;65257;52.104;4.268;2023-06-22T09:03:54;31.13;;;18.55;;
76423;SDS011;65257;52.104;4.268;2023-06-22T09:06:24;29.20;;;18.77;;
76423;SDS011;65257;52.104;4.268;2023-06-22T09:08:50;29.98;;;19.42;;
76423;SDS011;65257;52.104;4.268;2023-06-22T09:11:18;30.65;;;20.80;;
76423;SDS011;65257;52.104;4.268;2023-06-22T09:13:44;31.15;;;19.67;;
76423;SDS011;65257;52.104;4.268;2023-06-22T09:16:11;31.77;;;19.67;;
76423;SDS011;65257;52.104;4.268;2023-06-22T09:18:37;38.80;;;22.55;;
76423;SDS011;65257;52.104;4.268;2023-06-22T09:21:02;34.85;;;21.33;;
76423;SDS011;65257;52.104;4.268;2023-06-22T09:23:29;31.83;;;20.00;;
76423;SDS011;65257;52.104;4.268;2023-06-22T09:25:58;37.05;;;21.75;;
76423;SDS011;65257;52.104;4.268;2023-06-22T09:28:24;34.45;;;21.58;;
76423;SDS011;65257;52.104;4.268;2023-06-22T09:30:49;36.17;;;22.00;;
76423;SDS011;65257;52.104;4.268;2023-06-22T09:33:15;33.75;;;21.13;;
76423;SDS011;65257;52.104;4.268;2023-06-22T09:35:40;32.78;;;22.55;;
76423;SDS011;65257;52.104;4.268;2023-06-22T09:38:06;33.10;;;20.92;;
76423;SDS011;65257;52.104;4.268;2023-06-22T09:40:31;31.10;;;21.95;;
76423;SDS011;65257;52.104;4.268;2023-06-22T09:43:00;32.85;;;22.23;;
76423;SDS011;65257;52.104;4.268;2023-06-22T09:45:25;33.97;;;22.70;;
76423;SDS011;65257;52.104;4.268;2023-06-22T09:47:51;40.95;;;23.35;;
76423;SDS011;65257;52.104;4.268;2023-06-22T09:50:19;33.40;;;23.02;;
76423;SDS011;65257;52.104;4.268;2023-06-22T09:52:44;39.70;;;23.30;;
76423;SDS011;65257;52.104;4.268;2023-06-22T09:55:11;35.20;;;21.45;;
76423;SDS011;65257;52.104;4.268;2023-06-22T09:57:37;32.60;;;22.60;;
76423;SDS011;65257;52.104;4.268;2023-06-22T10:00:02;37.47;;;22.58;;
76423;SDS011;65257;52.104;4.268;2023-06-22T10:02:34;39.92;;;23.70;;
76423;SDS011;65257;52.104;4.268;2023-06-22T10:04:59;36.00;;;24.30;;
76423;SDS011;65257;52.104;4.268;2023-06-22T10:07:25;38.10;;;24.35;;
76423;SDS011;65257;52.104;4.268;2023-06-22T10:09:50;36.67;;;24.85;;
76423;SDS011;65257;52.104;4.268;2023-06-22T10:12:18;32.45;;;21.70;;
76423;SDS011;65257;52.104;4.268;2023-06-22T10:14:44;36.38;;;23.30;;
76423;SDS011;65257;52.104;4.268;2023-06-22T10:17:09;35.50;;;24.10;;
76423;SDS011;65257;52.104;4.268;2023-06-22T10:19:35;33.97;;;22.85;;
76423;SDS011;65257;52.104;4.268;2023-06-22T10:22:04;35.28;;;23.17;;
76423;SDS011;65257;52.104;4.268;2023-06-22T10:24:30;31.67;;;22.00;;
76423;SDS011;65257;52.104;4.268;2023-06-22T10:26:55;32.30;;;23.48;;
76423;SDS011;65257;52.104;4.268;2023-06-22T10:29:20;28.88;;;20.20;;
76423;SDS011;65257;52.104;4.268;2023-06-22T10:31:46;26.73;;;19.73;;
76423;SDS011;65257;52.104;4.268;2023-06-22T10:34:14;33.58;;;20.80;;
76423;SDS011;65257;52.104;4.268;2023-06-22T10:36:39;28.45;;;20.60;;
76423;SDS011;65257;52.104;4.268;2023-06-22T10:39:05;28.80;;;20.10;;
76423;SDS011;65257;52.104;4.268;2023-06-22T10:41:31;26.63;;;20.00;;
76423;SDS011;65257;52.104;4.268;2023-06-22T10:43:56;28.42;;;21.55;;
76423;SDS011;65257;52.104;4.268;2023-06-22T10:46:23;27.15;;;21.27;;
76423;SDS011;65257;52.104;4.268;2023-06-22T10:48:50;34.08;;;22.15;;
76423;SDS011;65257;52.104;4.268;2023-06-22T10:51:19;32.47;;;21.60;;
76423;SDS011;65257;52.104;4.268;2023-06-22T10:53:44;27.85;;;21.10;;
76423;SDS011;65257;52.104;4.268;2023-06-22T10:56:10;29.98;;;22.60;;
76423;SDS011;65257;52.104;4.268;2023-06-22T10:58:38;28.83;;;22.25;;
76423;SDS011;65257;52.104;4.268;2023-06-22T11:01:06;28.58;;;22.63;;
76423;SDS011;65257;52.104;4.268;2023-06-22T11:03:32;32.78;;;25.20;;
76423;SDS011;65257;52.104;4.268;2023-06-22T11:05:57;31.20;;;24.40;;
76423;SDS011;65257;52.104;4.268;2023-06-22T11:08:23;30.42;;;23.13;;
76423;SDS011;65257;52.104;4.268;2023-06-22T11:10:48;29.30;;;22.85;;
76423;SDS011;65257;52.104;4.268;2023-06-22T11:13:16;31.92;;;22.20;;
76423;SDS011;65257;52.104;4.268;2023-06-22T11:15:42;29.30;;;22.35;;
76423;SDS011;65257;52.104;4.268;2023-06-22T11:18:07;31.67;;;22.23;;
76423;SDS011;65257;52.104;4.268;2023-06-22T11:20:37;30.50;;;23.02;;
76423;SDS011;65257;52.104;4.268;2023-06-22T11:23:05;32.40;;;22.83;;
76423;SDS011;65257;52.104;4.268;2023-06-22T11:25:31;32.08;;;24.65;;
76423;SDS011;65257;52.104;4.268;2023-06-22T11:28:03;27.30;;;22.42;;
76423;SDS011;65257;52.104;4.268;2023-06-22T11:30:29;34.25;;;23.50;;
76423;SDS011;65257;52.104;4.268;2023-06-22T11:32:59;29.08;;;22.20;;
76423;SDS011;65257;52.104;4.268;2023-06-22T11:35:25;33.10;;;24.15;;
76423;SDS011;65257;52.104;4.268;2023-06-22T11:37:50;30.92;;;22.88;;
76423;SDS011;65257;52.104;4.268;2023-06-22T11:40:15;30.23;;;21.73;;
76423;SDS011;65257;52.104;4.268;2023-06-22T11:42:42;30.05;;;20.95;;
76423;SDS011;65257;52.104;4.268;2023-06-22T11:45:08;28.90;;;21.25;;
76423;SDS011;65257;52.104;4.268;2023-06-22T11:47:35;32.60;;;21.80;;
76423;SDS011;65257;52.104;4.268;2023-06-22T11:50:01;32.47;;;22.85;;
76423;SDS011;65257;52.104;4.268;2023-06-22T11:52:28;28.65;;;22.50;;
76423;SDS011;65257;52.104;4.268;2023-06-22T11:54:53;33.05;;;22.40;;
76423;SDS011;65257;52.104;4.268;2023-06-22T11:57:18;32.88;;;22.98;;
76423;SDS011;65257;52.104;4.268;2023-06-22T11:59:44;32.08;;;23.00;;
76423;SDS011;65257;52.104;4.268;2023-06-22T12:02:09;31.20;;;22.70;;
76423;SDS011;65257;52.104;4.268;2023-06-22T12:04:35;28.42;;;21.08;;
76423;SDS011;65257;52.104;4.268;2023-06-22T12:07:00;29.55;;;21.58;;
76423;SDS011;65257;52.104;4.268;2023-06-22T12:09:26;34.58;;;22.17;;
76423;SDS011;65257;52.104;4.268;2023-06-22T12:11:54;33.42;;;24.27;;
76423;SDS011;65257;52.104;4.268;2023-06-22T12:14:23;30.80;;;21.40;;
76423;SDS011;65257;52.104;4.268;2023-06-22T12:16:51;31.05;;;22.25;;
76423;SDS011;65257;52.104;4.268;2023-06-22T12:19:17;35.22;;;24.83;;
76423;SDS011;65257;52.104;4.268;2023-06-22T12:21:42;36.47;;;24.88;;
76423;SDS011;65257;52.104;4.268;2023-06-22T12:24:10;34.78;;;23.85;;
76423;SDS011;65257;52.104;4.268;2023-06-22T12:26:37;35.38;;;25.50;;
76423;SDS011;65257;52.104;4.268;2023-06-22T12:29:03;38.78;;;26.23;;
76423;SDS011;65257;52.104;4.268;2023-06-22T12:31:29;37.78;;;23.40;;
76423;SDS011;65257;52.104;4.268;2023-06-22T12:33:54;36.65;;;24.00;;
76423;SDS011;65257;52.104;4.268;2023-06-22T12:36:20;33.95;;;22.17;;
76423;SDS011;65257;52.104;4.268;2023-06-22T12:38:45;28.75;;;20.25;;
76423;SDS011;65257;52.104;4.268;2023-06-22T12:41:20;32.03;;;20.38;;
76423;SDS011;65257;52.104;4.268;2023-06-22T12:43:46;29.25;;;18.83;;
76423;SDS011;65257;52.104;4.268;2023-06-22T12:46:11;30.60;;;19.55;;
76423;SDS011;65257;52.104;4.268;2023-06-22T12:48:37;28.30;;;18.90;;
76423;SDS011;65257;52.104;4.268;2023-06-22T12:51:07;27.33;;;19.02;;
76423;SDS011;65257;52.104;4.268;2023-06-22T12:53:33;26.52;;;17.25;;
76423;SDS011;65257;52.104;4.268;2023-06-22T12:55:58;31.77;;;19.40;;
76423;SDS011;65257;52.104;4.268;2023-06-22T12:58:24;26.23;;;18.45;;
76423;SDS011;65257;52.104;4.268;2023-06-22T13:00:53;25.85;;;17.80;;
76423;SDS011;65257;52.104;4.268;2023-06-22T13:03:18;25.83;;;18.33;;
76423;SDS011;65257;52.104;4.268;2023-06-22T13:05:44;24.48;;;17.05;;
76423;SDS011;65257;52.104;4.268;2023-06-22T13:08:09;25.42;;;18.35;;
76423;SDS011;65257;52.104;4.268;2023-06-22T13:10:36;28.40;;;19.95;;
76423;SDS011;65257;52.104;4.268;2023-06-22T13:13:01;22.15;;;18.33;;
76423;SDS011;65257;52.104;4.268;2023-06-22T13:15:29;25.17;;;17.65;;
76423;SDS011;65257;52.104;4.268;2023-06-22T13:17:55;26.58;;;17.33;;
76423;SDS011;65257;52.104;4.268;2023-06-22T13:20:21;24.95;;;16.67;;
76423;SDS011;65257;52.104;4.268;2023-06-22T13:22:46;24.15;;;17.77;;
76423;SDS011;65257;52.104;4.268;2023-06-22T13:25:11;26.75;;;17.17;;
76423;SDS011;65257;52.104;4.268;2023-06-22T13:27:44;26.48;;;17.20;;
76423;SDS011;65257;52.104;4.268;2023-06-22T13:30:12;24.98;;;16.48;;
76423;SDS011;65257;52.104;4.268;2023-06-22T13:32:40;26.02;;;16.65;;
76423;SDS011;65257;52.104;4.268;2023-06-22T13:35:07;24.90;;;16.90;;
76423;SDS011;65257;52.104;4.268;2023-06-22T13:37:34;21.73;;;15.48;;
76423;SDS011;65257;52.104;4.268;2023-06-22T13:40:00;25.58;;;14.85;;
76423;SDS011;65257;52.104;4.268;2023-06-22T13:42:28;24.45;;;15.55;;
76423;SDS011;65257;52.104;4.268;2023-06-22T13:44:55;19.95;;;14.40;;
76423;SDS011;65257;52.104;4.268;2023-06-22T13:47:23;18.67;;;14.50;;
76423;SDS011;65257;52.104;4.268;2023-06-22T13:49:49;19.70;;;14.70;;
76423;SDS011;65257;52.104;4.268;2023-06-22T13:52:14;19.50;;;13.68;;
76423;SDS011;65257;52.104;4.268;2023-06-22T13:54:39;17.60;;;12.23;;
76423;SDS011;65257;52.104;4.268;2023-06-22T13:57:06;17.10;;;12.82;;
76423;SDS011;65257;52.104;4.268;2023-06-22T13:59:32;20.23;;;12.68;;
76423;SDS011;65257;52.104;4.268;2023-06-22T14:01:57;19.65;;;12.63;;
76423;SDS011;65257;52.104;4.268;2023-06-22T14:04:23;19.85;;;12.32;;
76423;SDS011;65257;52.104;4.268;2023-06-22T14:06:49;22.65;;;13.38;;
76423;SDS011;65257;52.104;4.268;2023-06-22T14:09:14;20.48;;;12.38;;
76423;SDS011;65257;52.104;4.268;2023-06-22T14:11:40;24.48;;;14.27;;
76423;SDS011;65257;52.104;4.268;2023-06-22T14:14:07;22.52;;;15.65;;
76423;SDS011;65257;52.104;4.268;2023-06-22T14:16:35;19.02;;;13.27;;
76423;SDS011;65257;52.104;4.268;2023-06-22T14:19:00;24.15;;;13.38;;
76423;SDS011;65257;52.104;4.268;2023-06-22T14:21:25;21.45;;;13.65;;
76423;SDS011;65257;52.104;4.268;2023-06-22T14:23:55;23.25;;;14.00;;
76423;SDS011;65257;52.104;4.268;2023-06-22T14:26:20;24.95;;;15.07;;
76423;SDS011;65257;52.104;4.268;2023-06-22T14:28:47;23.08;;;14.35;;
76423;SDS011;65257;52.104;4.268;2023-06-22T14:31:15;25.02;;;16.13;;
76423;SDS011;65257;52.104;4.268;2023-06-22T14:33:47;22.63;;;14.85;;